LOT9202 EPSY-EPWA
Flight info
| Callsign | LOT9202 |
|---|---|
| Flight time | 0h 24m |
| Altitude | 25000 |
| Route | NIVON Y564 IXIXI DCT VEKAV DCT LASGU N191 SORIX |
| Aircraft | B738/M-SDE2E3FGHIJ1RWXY/LB1 |
Departure
| Time | 2026-05-04 14:58 |
|---|---|
| Airport | Olsztyn-Mazury Airport (EPSY) |
Arrival
| Time | 2026-05-04 15:23 |
|---|---|
| Airport | Warsaw Chopin Airport (EPWA) |
| Time | Latitude | Longitude | Altitude | Speed | Heading |
|---|---|---|---|---|---|
| 2026-05-04 14:45 | 53.48742 | 20.94493 | 464 ft | 0 kts | 108° |
| 2026-05-04 14:54 | 53.48747 | 20.94469 | 463 ft | 4 kts | 111° |
| 2026-05-04 14:55 | 53.48758 | 20.94430 | 462 ft | 4 kts | 138° |
| 2026-05-04 14:55 | 53.48766 | 20.94412 | 465 ft | 4 kts | 234° |
| 2026-05-04 14:55 | 53.48767 | 20.94396 | 465 ft | 0 kts | 278° |
| 2026-05-04 14:57 | 53.48768 | 20.94378 | 466 ft | 8 kts | 278° |
| 2026-05-04 14:57 | 53.48799 | 20.94220 | 467 ft | 14 kts | 291° |
| 2026-05-04 14:57 | 53.48776 | 20.94092 | 467 ft | 14 kts | 196° |
| 2026-05-04 14:58 | 53.48576 | 20.93986 | 467 ft | 66 kts | 199° |
| 2026-05-04 14:58 | 53.47886 | 20.93604 | 453 ft | 140 kts | 199° |
| 2026-05-04 14:58 | 53.46877 | 20.93082 | 1000 ft | 155 kts | 201° |
| 2026-05-04 14:58 | 53.45839 | 20.92487 | 1802 ft | 160 kts | 206° |
| 2026-05-04 14:59 | 53.44702 | 20.91811 | 2403 ft | 191 kts | 204° |
| 2026-05-04 14:59 | 53.43407 | 20.91084 | 3143 ft | 199 kts | 203° |
| 2026-05-04 14:59 | 53.40755 | 20.89474 | 4678 ft | 211 kts | 217° |
| 2026-05-04 15:00 | 53.39844 | 20.87461 | 5030 ft | 229 kts | 253° |
| 2026-05-04 15:00 | 53.39775 | 20.84821 | 5750 ft | 236 kts | 275° |
| 2026-05-04 15:00 | 53.39517 | 20.82030 | 6373 ft | 254 kts | 241° |
| 2026-05-04 15:01 | 53.36773 | 20.78152 | 8591 ft | 258 kts | 219° |
| 2026-05-04 15:01 | 53.35351 | 20.76366 | 9757 ft | 260 kts | 218° |
| 2026-05-04 15:01 | 53.33632 | 20.75226 | 10601 ft | 284 kts | 191° |
| 2026-05-04 15:01 | 53.31534 | 20.75471 | 11077 ft | 317 kts | 176° |
| 2026-05-04 15:02 | 53.29325 | 20.76090 | 11939 ft | 326 kts | 175° |
| 2026-05-04 15:02 | 53.27071 | 20.76757 | 12985 ft | 332 kts | 175° |
| 2026-05-04 15:02 | 53.24779 | 20.77430 | 14031 ft | 337 kts | 175° |
| 2026-05-04 15:02 | 53.22452 | 20.78096 | 15019 ft | 342 kts | 176° |
| 2026-05-04 15:03 | 53.20090 | 20.78754 | 16010 ft | 348 kts | 175° |
| 2026-05-04 15:03 | 53.17677 | 20.79414 | 16996 ft | 354 kts | 175° |
| 2026-05-04 15:03 | 53.15226 | 20.80074 | 17961 ft | 360 kts | 175° |
| 2026-05-04 15:03 | 53.12730 | 20.80740 | 18828 ft | 366 kts | 175° |
| 2026-05-04 15:04 | 53.10199 | 20.81411 | 19648 ft | 371 kts | 175° |
| 2026-05-04 15:04 | 53.07640 | 20.82088 | 20503 ft | 375 kts | 174° |
| 2026-05-04 15:04 | 53.05062 | 20.82768 | 20845 ft | 374 kts | 174° |
| 2026-05-04 15:04 | 53.02490 | 20.83447 | 20901 ft | 373 kts | 174° |
| 2026-05-04 15:05 | 52.99943 | 20.84119 | 20911 ft | 369 kts | 174° |
| 2026-05-04 15:05 | 52.97410 | 20.84785 | 20921 ft | 369 kts | 174° |
| 2026-05-04 15:05 | 52.94863 | 20.85450 | 20710 ft | 371 kts | 174° |
| 2026-05-04 15:05 | 52.92319 | 20.86114 | 20462 ft | 370 kts | 174° |
| 2026-05-04 15:06 | 52.89778 | 20.86777 | 20204 ft | 370 kts | 174° |
| 2026-05-04 15:06 | 52.87238 | 20.87438 | 19954 ft | 370 kts | 174° |
| 2026-05-04 15:06 | 52.84693 | 20.88101 | 19717 ft | 370 kts | 174° |
| 2026-05-04 15:07 | 52.79606 | 20.89422 | 19153 ft | 369 kts | 175° |
| 2026-05-04 15:07 | 52.77076 | 20.90079 | 18602 ft | 366 kts | 175° |
| 2026-05-04 15:07 | 52.74569 | 20.90730 | 18046 ft | 362 kts | 175° |
| 2026-05-04 15:07 | 52.72092 | 20.91372 | 17435 ft | 359 kts | 175° |
| 2026-05-04 15:08 | 52.69639 | 20.92007 | 16857 ft | 355 kts | 175° |
| 2026-05-04 15:08 | 52.67214 | 20.92633 | 16306 ft | 351 kts | 175° |
| 2026-05-04 15:08 | 52.64814 | 20.93253 | 15755 ft | 347 kts | 175° |
| 2026-05-04 15:08 | 52.62445 | 20.93863 | 15206 ft | 343 kts | 175° |
| 2026-05-04 15:09 | 52.60097 | 20.94467 | 14674 ft | 340 kts | 176° |
| 2026-05-04 15:09 | 52.57772 | 20.95064 | 14146 ft | 336 kts | 176° |
| 2026-05-04 15:09 | 52.55470 | 20.95655 | 13614 ft | 334 kts | 176° |
| 2026-05-04 15:10 | 52.50918 | 20.96820 | 12481 ft | 328 kts | 175° |
| 2026-05-04 15:10 | 52.48676 | 20.97394 | 11949 ft | 325 kts | 175° |
| 2026-05-04 15:10 | 52.44269 | 20.98519 | 10915 ft | 320 kts | 175° |
| 2026-05-04 15:11 | 52.42050 | 20.99084 | 10415 ft | 318 kts | 175° |
| 2026-05-04 15:11 | 52.39944 | 20.99624 | 10311 ft | 303 kts | 175° |
| 2026-05-04 15:11 | 52.37911 | 21.00144 | 10198 ft | 290 kts | 175° |
| 2026-05-04 15:11 | 52.35959 | 21.00642 | 10081 ft | 278 kts | 175° |
| 2026-05-04 15:12 | 52.34075 | 21.01120 | 9867 ft | 272 kts | 175° |
| 2026-05-04 15:12 | 52.32214 | 21.01590 | 9530 ft | 270 kts | 175° |
| 2026-05-04 15:12 | 52.30363 | 21.02058 | 9199 ft | 268 kts | 175° |
| 2026-05-04 15:12 | 52.28522 | 21.02524 | 8861 ft | 267 kts | 175° |
| 2026-05-04 15:13 | 52.26705 | 21.03148 | 8521 ft | 270 kts | 163° |
| 2026-05-04 15:13 | 52.25021 | 21.04520 | 8196 ft | 271 kts | 155° |
| 2026-05-04 15:13 | 52.23374 | 21.06013 | 7856 ft | 270 kts | 155° |
| 2026-05-04 15:13 | 52.21728 | 21.07489 | 7529 ft | 269 kts | 155° |
| 2026-05-04 15:14 | 52.20083 | 21.08934 | 7204 ft | 268 kts | 156° |
| 2026-05-04 15:14 | 52.18447 | 21.10354 | 7002 ft | 262 kts | 156° |
| 2026-05-04 15:14 | 52.16858 | 21.11728 | 6866 ft | 255 kts | 156° |
| 2026-05-04 15:14 | 52.15306 | 21.13064 | 6708 ft | 249 kts | 156° |
| 2026-05-04 15:15 | 52.13780 | 21.14391 | 6417 ft | 250 kts | 155° |
| 2026-05-04 15:15 | 52.12250 | 21.15732 | 6143 ft | 249 kts | 155° |
| 2026-05-04 15:15 | 52.10725 | 21.17069 | 5869 ft | 249 kts | 155° |
| 2026-05-04 15:16 | 52.07681 | 21.19732 | 5318 ft | 248 kts | 155° |
| 2026-05-04 15:16 | 52.06168 | 21.21054 | 5129 ft | 243 kts | 155° |
| 2026-05-04 15:16 | 52.03273 | 21.23571 | 4902 ft | 228 kts | 158° |
| 2026-05-04 15:17 | 52.01785 | 21.24016 | 4795 ft | 213 kts | 192° |
| 2026-05-04 15:17 | 51.99551 | 21.21493 | 4622 ft | 196 kts | 239° |
| 2026-05-04 15:17 | 51.98887 | 21.19526 | 4456 ft | 201 kts | 242° |
| 2026-05-04 15:18 | 51.98220 | 21.17510 | 4274 ft | 204 kts | 242° |
| 2026-05-04 15:18 | 51.97765 | 21.15362 | 4045 ft | 205 kts | 269° |
| 2026-05-04 15:18 | 51.98297 | 21.13263 | 3851 ft | 209 kts | 312° |
| 2026-05-04 15:19 | 52.00716 | 21.10670 | 3574 ft | 208 kts | 326° |
| 2026-05-04 15:19 | 52.01970 | 21.09525 | 3318 ft | 205 kts | 328° |
| 2026-05-04 15:19 | 52.04418 | 21.07374 | 2773 ft | 194 kts | 328° |
| 2026-05-04 15:20 | 52.05587 | 21.06350 | 2534 ft | 189 kts | 328° |
| 2026-05-04 15:20 | 52.06733 | 21.05344 | 2285 ft | 185 kts | 327° |
| 2026-05-04 15:20 | 52.07856 | 21.04360 | 2042 ft | 180 kts | 327° |
| 2026-05-04 15:20 | 52.08925 | 21.03421 | 1834 ft | 169 kts | 327° |
| 2026-05-04 15:21 | 52.09939 | 21.02531 | 1614 ft | 162 kts | 328° |
| 2026-05-04 15:21 | 52.10896 | 21.01693 | 1418 ft | 148 kts | 327° |
| 2026-05-04 15:21 | 52.12587 | 21.00206 | 1037 ft | 134 kts | 327° |
| 2026-05-04 15:22 | 52.13408 | 20.99480 | 828 ft | 136 kts | 327° |
| 2026-05-04 15:22 | 52.14257 | 20.98735 | 651 ft | 142 kts | 328° |
| 2026-05-04 15:22 | 52.15926 | 20.97286 | 344 ft | 124 kts | 326° |
| 2026-05-04 15:23 | 52.16560 | 20.96724 | 336 ft | 83 kts | 332° |
| 2026-05-04 15:23 | 52.16825 | 20.96516 | 335 ft | 25 kts | 350° |
| 2026-05-04 15:23 | 52.16993 | 20.96511 | 337 ft | 21 kts | 2° |
| 2026-05-04 15:23 | 52.17105 | 20.96614 | 335 ft | 18 kts | 62° |
| 2026-05-04 15:24 | 52.17235 | 20.96736 | 337 ft | 10 kts | 264° |
| 2026-05-04 15:24 | 52.17194 | 20.96674 | 335 ft | 0 kts | 206° |